Aviation Digital Data Service (ADDS)

Output produced by METARs form (1347 UTC 19 August 2019)
found at http://aviationweather.gov/metar/data/
 
METAR text: KAUN 191335Z AUTO 00000KT 10SM CLR 13/10 A2994 RMK A01
Conditions at: KAUN (AUBURN MUNI , CA, US) observed 1335 UTC 19 August 2019
Temperature: 13.0°C (55°F)
Dewpoint: 10.0°C (50°F) [RH = 82%]
Pressure (altimeter): 29.94 inches Hg (1014.0 mb)
Winds: calm
Visibility: 10 or more miles (16+ km)
Ceiling: at least 12,000 feet AGL
Clouds: sky clear below 12,000 feet AGL
Weather: automated observation with no human augmentation;
there may or may not be significant weather present at this time